createdAt,value
2023-03-11T00:01:07.386Z,96230.56
2023-03-11T00:06:14.059Z,96231.63
2023-03-11T00:08:40.402Z,96218.97
2023-03-11T00:11:06.745Z,96217.25
2023-03-11T00:13:35.969Z,96223.81
2023-03-11T00:16:11.721Z,96220.91
2023-03-11T00:18:38.140Z,96232.63
2023-03-11T00:21:04.549Z,96214.28
2023-03-11T00:23:30.994Z,96228.09
2023-03-11T00:26:06.421Z,96221.69
2023-03-11T00:31:23.458Z,96200.06
2023-03-11T00:33:49.853Z,96192.84
2023-03-11T00:36:16.337Z,96204.38
2023-03-11T00:38:42.763Z,96208.47
2023-03-11T00:41:09.206Z,96202.31
2023-03-11T00:43:35.582Z,96216.50
2023-03-11T00:46:02.017Z,96225.16
2023-03-11T00:48:28.398Z,96214.22
2023-03-11T00:50:54.735Z,96223.09
2023-03-11T00:53:21.114Z,96242.88
2023-03-11T00:55:47.486Z,96238.13
2023-03-11T00:58:13.964Z,96229.03
2023-03-11T01:00:40.339Z,96230.09
2023-03-11T01:03:06.663Z,96234.38
2023-03-11T01:08:32.220Z,96214.22
2023-03-11T01:10:58.663Z,96217.94
2023-03-11T01:13:25.096Z,96219.63
2023-03-11T01:15:51.585Z,96219.19
2023-03-11T01:18:18.093Z,96210.94
2023-03-11T01:20:44.547Z,96222.06
2023-03-11T01:23:10.970Z,96218.75
2023-03-11T01:25:37.370Z,96215.03
2023-03-11T01:28:03.813Z,96229.25
2023-03-11T01:30:30.249Z,96223.66
2023-03-11T01:32:56.590Z,96226.13
2023-03-11T01:35:25.708Z,96215.22
2023-03-11T01:37:52.074Z,96212.53
2023-03-11T01:40:18.395Z,96195.63
2023-03-11T01:42:44.718Z,96177.56
2023-03-11T01:45:11.062Z,96176.34
2023-03-11T01:47:37.505Z,96176.81
2023-03-11T01:50:03.828Z,96167.19
2023-03-11T01:55:15.144Z,96156.63
2023-03-11T01:57:41.606Z,96135.81
2023-03-11T02:00:08.043Z,96130.81
2023-03-11T02:02:34.544Z,96133.16
2023-03-11T02:05:01.048Z,96120.09
2023-03-11T02:07:27.489Z,96103.38
2023-03-11T02:09:54.021Z,96080.06
2023-03-11T02:12:20.446Z,96084.47
2023-03-11T02:14:46.849Z,96093.91
2023-03-11T02:17:13.264Z,96101.50
2023-03-11T02:19:39.694Z,96120.72
2023-03-11T02:22:06.143Z,96122.38
2023-03-11T02:24:32.618Z,96140.06
2023-03-11T02:26:59.532Z,96126.88
2023-03-11T02:29:25.954Z,96132.25
2023-03-11T02:31:52.456Z,96133.09
2023-03-11T02:34:18.961Z,96136.56
2023-03-11T02:36:45.430Z,96112.44
2023-03-11T02:39:11.839Z,96108.53
2023-03-11T02:41:38.304Z,96100.16
2023-03-11T02:44:04.765Z,96097.28
2023-03-11T02:46:31.193Z,96102.19
2023-03-11T02:48:57.571Z,96111.25
2023-03-11T02:51:23.957Z,96115.19
2023-03-11T02:53:50.349Z,96134.34
2023-03-11T02:56:16.692Z,96143.41
2023-03-11T02:58:43.097Z,96156.00
2023-03-11T03:01:09.585Z,96139.28
2023-03-11T03:03:36.026Z,96139.28
2023-03-11T03:06:03.515Z,96123.44
2023-03-11T03:08:30.014Z,96101.88
2023-03-11T03:10:56.448Z,96072.59
2023-03-11T03:13:22.859Z,96055.13
2023-03-11T03:15:50.983Z,96053.25
2023-03-11T03:18:17.551Z,96051.69
2023-03-11T03:20:43.979Z,96063.88
2023-03-11T03:23:11.859Z,96053.22
2023-03-11T03:25:50.234Z,96042.13
2023-03-11T03:28:16.634Z,96053.84
2023-03-11T03:30:43.281Z,96046.22
2023-03-11T03:33:09.655Z,96045.22
2023-03-11T03:35:36.013Z,96045.44
2023-03-11T03:38:02.584Z,96043.00
2023-03-11T03:40:29.266Z,96028.78
2023-03-11T03:45:47.077Z,96013.41
2023-03-11T03:48:13.731Z,96007.81
2023-03-11T03:50:40.558Z,96013.97
2023-03-11T03:53:06.935Z,96029.69
2023-03-11T03:55:33.348Z,96007.06
2023-03-11T03:57:59.817Z,96008.91
2023-03-11T04:00:26.240Z,96015.69
2023-03-11T04:02:52.577Z,96022.25
2023-03-11T04:05:18.941Z,96004.16
2023-03-11T04:07:45.339Z,95998.81
2023-03-11T04:10:11.700Z,95997.56
2023-03-11T04:12:38.124Z,96002.06
2023-03-11T04:15:04.456Z,95999.16
2023-03-11T04:17:30.840Z,96003.50
2023-03-11T04:19:57.226Z,95986.63
2023-03-11T04:22:23.621Z,95957.19
2023-03-11T04:24:58.238Z,95984.75
2023-03-11T04:27:27.967Z,96004.91
2023-03-11T04:29:54.374Z,95984.31
2023-03-11T04:32:20.790Z,95985.13
2023-03-11T04:34:47.488Z,95997.25
2023-03-11T04:37:13.888Z,95990.66
2023-03-11T04:39:45.419Z,96015.56
2023-03-11T04:42:13.543Z,96013.09
2023-03-11T04:44:40.030Z,95988.19
2023-03-11T04:47:06.464Z,95967.34
2023-03-11T04:49:32.874Z,95972.28
2023-03-11T04:51:59.259Z,96014.31
2023-03-11T04:54:25.626Z,96031.19
2023-03-11T04:56:52.085Z,96018.44
2023-03-11T04:59:18.463Z,96004.69
2023-03-11T05:01:44.875Z,95989.31
2023-03-11T05:04:11.456Z,96010.50
2023-03-11T05:06:37.954Z,96012.13
2023-03-11T05:09:04.447Z,95981.63
2023-03-11T05:11:30.872Z,95988.63
2023-03-11T05:13:57.387Z,95998.72
2023-03-11T05:16:39.071Z,95997.75
2023-03-11T05:19:05.447Z,95990.56
2023-03-11T05:21:31.841Z,95983.19
2023-03-11T05:23:58.265Z,96015.50
2023-03-11T05:26:24.646Z,96001.09
2023-03-11T05:28:51.078Z,96011.66
2023-03-11T05:31:17.543Z,95993.50
2023-03-11T05:33:44.001Z,95996.84
2023-03-11T05:36:10.480Z,96011.03
2023-03-11T05:38:36.961Z,96017.16
2023-03-11T05:41:03.352Z,96012.03
2023-03-11T05:43:29.733Z,96018.19
2023-03-11T05:45:56.062Z,96018.81
2023-03-11T05:48:22.472Z,96022.69
2023-03-11T05:50:48.804Z,96028.47
2023-03-11T05:53:15.130Z,96015.72
2023-03-11T05:55:41.443Z,96016.16
2023-03-11T05:58:07.842Z,96015.34
2023-03-11T06:00:34.257Z,96019.06
2023-03-11T06:03:00.747Z,96023.63
2023-03-11T06:05:27.255Z,96015.59
2023-03-11T06:07:53.708Z,96015.81
2023-03-11T06:10:20.181Z,96021.38
2023-03-11T06:12:46.609Z,96034.31
2023-03-11T06:15:13.036Z,96036.00
2023-03-11T06:17:46.640Z,96048.53
2023-03-11T06:20:13.129Z,96056.78
2023-03-11T06:22:40.370Z,96060.53
2023-03-11T06:25:06.904Z,96065.88
2023-03-11T06:27:33.338Z,96065.66
2023-03-11T06:29:59.780Z,96061.13
2023-03-11T06:32:26.293Z,96077.38
2023-03-11T06:34:52.701Z,96071.34
2023-03-11T06:37:19.908Z,96069.47
2023-03-11T06:39:49.489Z,96075.81
2023-03-11T06:42:15.927Z,96057.38
2023-03-11T06:44:42.267Z,96058.16
2023-03-11T06:47:08.599Z,96054.81
2023-03-11T06:49:34.959Z,96058.16
2023-03-11T06:52:01.333Z,96058.69
2023-03-11T06:54:27.671Z,96055.31
2023-03-11T06:56:53.999Z,96054.47
2023-03-11T06:59:20.348Z,96042.09
2023-03-11T07:01:46.772Z,96038.13
2023-03-11T07:04:13.116Z,96028.03
2023-03-11T07:06:39.444Z,96033.94
2023-03-11T07:09:05.897Z,96031.25
2023-03-11T07:11:32.291Z,96051.88
2023-03-11T07:13:58.630Z,96049.00
2023-03-11T07:16:25.007Z,96069.63
2023-03-11T07:18:51.406Z,96072.53
2023-03-11T07:21:17.778Z,96070.44
2023-03-11T07:23:44.142Z,96067.97
2023-03-11T07:26:11.536Z,96068.78
2023-03-11T07:28:37.949Z,96048.56
2023-03-11T07:31:04.357Z,96050.81
2023-03-11T07:33:32.624Z,96048.78
2023-03-11T07:36:00.202Z,96057.63
2023-03-11T07:38:26.560Z,96062.28
2023-03-11T07:40:52.907Z,96072.19
2023-03-11T07:43:32.210Z,96066.00
2023-03-11T07:45:58.776Z,96066.25
2023-03-11T07:48:25.188Z,96061.91
2023-03-11T07:50:51.625Z,96052.63
2023-03-11T07:53:18.328Z,96070.97
2023-03-11T07:55:50.537Z,96078.78
2023-03-11T07:58:16.958Z,96079.63
2023-03-11T08:00:43.306Z,96096.94
2023-03-11T08:03:09.725Z,96093.28
2023-03-11T08:05:36.107Z,96105.75
2023-03-11T08:08:02.543Z,96103.94
2023-03-11T08:10:35.572Z,96109.69
2023-03-11T08:15:53.519Z,96095.00
2023-03-11T08:18:20.062Z,96101.56
2023-03-11T08:20:46.450Z,96115.34
2023-03-11T08:23:12.787Z,96116.97
2023-03-11T08:25:39.178Z,96113.25
2023-03-11T08:28:14.363Z,96126.44
2023-03-11T08:30:42.035Z,96144.38
2023-03-11T08:33:08.629Z,96168.47
2023-03-11T08:35:35.148Z,96188.47
2023-03-11T08:38:01.767Z,96205.19
2023-03-11T08:40:28.289Z,96214.44
2023-03-11T08:42:54.728Z,96229.06
2023-03-11T08:45:21.188Z,96228.63
2023-03-11T08:47:47.591Z,96228.84
2023-03-11T08:52:55.796Z,96238.09
2023-03-11T08:55:22.213Z,96254.59
2023-03-11T08:57:48.697Z,96252.13
2023-03-11T09:00:15.109Z,96252.13
2023-03-11T09:02:41.750Z,96262.38
2023-03-11T09:05:08.295Z,96246.69
2023-03-11T09:07:34.745Z,96242.56
2023-03-11T09:10:01.185Z,96247.50
2023-03-11T09:12:27.554Z,96243.34
2023-03-11T09:14:53.966Z,96242.91
2023-03-11T09:17:20.393Z,96251.13
2023-03-11T09:19:46.845Z,96242.84
2023-03-11T09:22:15.379Z,96249.38
2023-03-11T09:24:41.799Z,96252.94
2023-03-11T09:27:08.188Z,96255.59
2023-03-11T09:29:34.568Z,96250.19
2023-03-11T09:32:00.917Z,96255.31
2023-03-11T09:34:27.486Z,96254.25
2023-03-11T09:36:53.951Z,96244.31
2023-03-11T09:39:20.299Z,96249.38
2023-03-11T09:41:57.825Z,96244.09
2023-03-11T09:44:35.383Z,96243.06
2023-03-11T09:49:47.644Z,96252.34
2023-03-11T09:52:14.096Z,96250.47
2023-03-11T09:54:40.480Z,96261.41
2023-03-11T09:57:06.890Z,96257.94
2023-03-11T09:59:33.248Z,96272.69
2023-03-11T10:01:59.640Z,96265.31
2023-03-11T10:04:26.048Z,96269.63
2023-03-11T10:06:52.462Z,96273.97
2023-03-11T10:09:18.854Z,96268.41
2023-03-11T10:11:45.308Z,96264.50
2023-03-11T10:14:11.737Z,96277.69
2023-03-11T10:16:38.172Z,96276.03
2023-03-11T10:19:04.597Z,96265.09
2023-03-11T10:21:30.950Z,96273.75
2023-03-11T10:23:57.465Z,96284.41
2023-03-11T10:26:23.902Z,96282.81
2023-03-11T10:28:50.285Z,96292.44
2023-03-11T10:31:16.658Z,96280.91
2023-03-11T10:33:43.195Z,96290.13
2023-03-11T10:36:09.643Z,96289.28
2023-03-11T10:38:36.068Z,96291.97
2023-03-11T10:41:02.446Z,96288.63
2023-03-11T10:43:28.933Z,96290.66
2023-03-11T10:45:55.432Z,96292.53
2023-03-11T10:48:21.880Z,96290.44
2023-03-11T10:50:48.370Z,96290.91
2023-03-11T10:53:16.090Z,96301.44
2023-03-11T10:55:42.491Z,96308.84
2023-03-11T10:58:08.963Z,96306.91
2023-03-11T11:00:35.421Z,96311.25
2023-03-11T11:03:01.821Z,96302.81
2023-03-11T11:05:28.170Z,96304.06
2023-03-11T11:07:54.555Z,96301.19
2023-03-11T11:10:21.031Z,96295.03
2023-03-11T11:12:47.766Z,96284.06
2023-03-11T11:15:15.559Z,96283.03
2023-03-11T11:17:41.965Z,96281.94
2023-03-11T11:20:08.379Z,96279.34
2023-03-11T11:22:34.849Z,96283.75
2023-03-11T11:25:02.288Z,96289.31
2023-03-11T11:27:28.921Z,96300.03
2023-03-11T11:29:55.277Z,96309.13
2023-03-11T11:32:21.722Z,96311.97
2023-03-11T11:34:50.669Z,96316.09
2023-03-11T11:37:17.066Z,96314.63
2023-03-11T11:39:43.563Z,96315.00
2023-03-11T11:42:09.990Z,96317.25
2023-03-11T11:44:36.877Z,96325.50
2023-03-11T11:47:07.991Z,96326.31
2023-03-11T11:49:34.448Z,96337.06
2023-03-11T11:52:12.472Z,96319.94
2023-03-11T11:54:39.266Z,96317.47
2023-03-11T11:57:05.662Z,96311.63
2023-03-11T12:02:13.373Z,96298.59
2023-03-11T12:04:40.196Z,96295.22
2023-03-11T12:07:06.596Z,96297.03
2023-03-11T12:09:33.094Z,96291.91
2023-03-11T12:11:59.572Z,96299.34
2023-03-11T12:14:26.011Z,96299.56
2023-03-11T12:16:52.370Z,96302.66
2023-03-11T12:19:19.004Z,96299.03
2023-03-11T12:21:46.633Z,96303.16
2023-03-11T12:24:13.019Z,96300.91
2023-03-11T12:26:39.406Z,96296.56
2023-03-11T12:29:05.740Z,96297.19
2023-03-11T12:31:32.242Z,96301.69
2023-03-11T12:33:58.714Z,96294.03
2023-03-11T12:36:25.198Z,96291.75
2023-03-11T12:38:51.663Z,96287.22
2023-03-11T12:41:19.856Z,96287.63
2023-03-11T12:43:47.574Z,96282.28
2023-03-11T12:46:19.567Z,96286.16
2023-03-11T12:48:46.112Z,96284.94
2023-03-11T12:51:12.587Z,96295.63
2023-03-11T12:53:39.201Z,96295.63
2023-03-11T12:56:05.787Z,96294.59
2023-03-11T12:58:32.340Z,96289.50
2023-03-11T13:00:58.788Z,96289.22
2023-03-11T13:03:25.272Z,96286.34
2023-03-11T13:05:51.723Z,96279.34
2023-03-11T13:08:18.203Z,96270.03
2023-03-11T13:10:53.841Z,96276.28
2023-03-11T13:13:20.253Z,96273.00
2023-03-11T13:15:53.149Z,96271.38
2023-03-11T13:18:19.755Z,96272.72
2023-03-11T13:20:46.281Z,96266.56
2023-03-11T13:23:12.825Z,96272.75
2023-03-11T13:25:39.331Z,96272.50
2023-03-11T13:28:05.742Z,96273.72
2023-03-11T13:30:32.224Z,96273.31
2023-03-11T13:32:58.705Z,96284.25
2023-03-11T13:35:25.212Z,96299.53
2023-03-11T13:37:51.572Z,96297.47
2023-03-11T13:40:17.978Z,96304.53
2023-03-11T13:42:44.481Z,96305.31
2023-03-11T13:45:11.005Z,96314.38
2023-03-11T13:47:45.834Z,96314.34
2023-03-11T13:50:17.022Z,96306.50
2023-03-11T13:52:44.268Z,96310.22
2023-03-11T13:55:10.652Z,96307.34
2023-03-11T13:57:37.116Z,96306.31
2023-03-11T14:00:03.550Z,96325.66
2023-03-11T14:02:29.987Z,96329.25
2023-03-11T14:04:56.319Z,96326.72
2023-03-11T14:10:13.129Z,96332.50
2023-03-11T14:12:39.511Z,96328.84
2023-03-11T14:15:05.957Z,96328.03
2023-03-11T14:17:32.297Z,96331.28
2023-03-11T14:19:58.671Z,96331.50
2023-03-11T14:22:26.773Z,96337.09
2023-03-11T14:24:53.090Z,96348.41
2023-03-11T14:27:19.477Z,96357.66
2023-03-11T14:29:55.263Z,96351.66
2023-03-11T14:32:21.790Z,96353.31
2023-03-11T14:34:48.161Z,96358.25
2023-03-11T14:37:14.527Z,96363.81
2023-03-11T14:39:40.875Z,96357.84
2023-03-11T14:42:07.324Z,96349.22
2023-03-11T14:44:33.960Z,96345.13
2023-03-11T14:47:01.211Z,96348.22
2023-03-11T14:49:28.312Z,96353.13
2023-03-11T14:51:54.784Z,96355.41
2023-03-11T14:54:21.299Z,96352.31
2023-03-11T14:56:50.924Z,96355.38
2023-03-11T14:59:17.952Z,96352.50
2023-03-11T15:01:44.385Z,96357.44
2023-03-11T15:04:10.793Z,96363.00
2023-03-11T15:06:37.266Z,96357.44
2023-03-11T15:09:03.665Z,96348.56
2023-03-11T15:11:30.054Z,96341.97
2023-03-11T15:13:56.468Z,96346.53
2023-03-11T15:16:22.996Z,96341.22
2023-03-11T15:18:49.422Z,96349.22
2023-03-11T15:21:15.814Z,96349.63
2023-03-11T15:23:42.246Z,96351.28
2023-03-11T15:26:08.771Z,96358.66
2023-03-11T15:31:18.269Z,96371.66
2023-03-11T15:33:50.093Z,96372.47
2023-03-11T15:36:16.606Z,96371.44
2023-03-11T15:38:43.069Z,96375.13
2023-03-11T15:41:10.019Z,96388.75
2023-03-11T15:43:36.769Z,96391.78
2023-03-11T15:46:03.866Z,96386.44
2023-03-11T15:48:30.309Z,96393.47
2023-03-11T15:50:56.711Z,96405.38
2023-03-11T15:53:23.077Z,96396.53
2023-03-11T15:55:49.532Z,96398.78
2023-03-11T15:58:15.928Z,96395.47
2023-03-11T16:00:42.293Z,96387.44
2023-03-11T16:03:08.770Z,96380.00
2023-03-11T16:05:35.201Z,96391.94
2023-03-11T16:08:01.669Z,96401.63
2023-03-11T16:10:28.026Z,96394.63
2023-03-11T16:12:54.369Z,96401.66
2023-03-11T16:15:20.797Z,96394.03
2023-03-11T16:17:50.043Z,96408.84
2023-03-11T16:20:16.598Z,96414.00
2023-03-11T16:22:42.976Z,96410.66
2023-03-11T16:25:12.416Z,96408.63
2023-03-11T16:27:38.776Z,96411.91
2023-03-11T16:30:05.249Z,96408.38
2023-03-11T16:32:31.813Z,96398.31
2023-03-11T16:34:58.345Z,96406.97
2023-03-11T16:37:24.777Z,96412.31
2023-03-11T16:39:51.217Z,96413.56
2023-03-11T16:42:17.582Z,96429.41
2023-03-11T16:44:43.897Z,96450.84
2023-03-11T16:47:10.802Z,96444.88
2023-03-11T16:49:40.450Z,96430.44
2023-03-11T16:52:08.004Z,96426.09
2023-03-11T16:54:34.425Z,96417.69
2023-03-11T16:57:08.130Z,96432.50
2023-03-11T16:59:34.521Z,96443.63
2023-03-11T17:04:46.147Z,96472.47
2023-03-11T17:07:12.578Z,96462.56
2023-03-11T17:09:38.998Z,96467.75
2023-03-11T17:12:05.414Z,96471.84
2023-03-11T17:14:32.113Z,96475.31
2023-03-11T17:16:58.582Z,96475.75
2023-03-11T17:19:25.086Z,96474.94
2023-03-11T17:21:51.496Z,96481.47
2023-03-11T17:24:17.965Z,96484.81
2023-03-11T17:26:44.415Z,96479.88
2023-03-11T17:29:10.926Z,96468.31
2023-03-11T17:31:37.551Z,96458.41
2023-03-11T17:34:04.056Z,96448.31
2023-03-11T17:36:42.112Z,96447.03
2023-03-11T17:39:11.261Z,96472.41
2023-03-11T17:41:37.754Z,96491.56
2023-03-11T17:44:04.201Z,96498.41
2023-03-11T17:46:30.716Z,96483.13
2023-03-11T17:48:57.248Z,96487.88
2023-03-11T17:51:23.682Z,96504.38
2023-03-11T17:53:50.170Z,96504.59
2023-03-11T17:56:16.580Z,96508.50
2023-03-11T17:58:43.074Z,96510.13
2023-03-11T18:01:09.559Z,96507.66
2023-03-11T18:03:36.273Z,96500.88
2023-03-11T18:06:03.719Z,96505.59
2023-03-11T18:08:30.241Z,96510.31
2023-03-11T18:10:56.827Z,96515.06
2023-03-11T18:13:23.266Z,96516.09
2023-03-11T18:15:49.661Z,96519.19
2023-03-11T18:18:16.123Z,96519.78
2023-03-11T18:20:55.628Z,96535.88
2023-03-11T18:23:22.046Z,96547.41
2023-03-11T18:25:48.531Z,96562.03
2023-03-11T18:28:15.211Z,96562.25
2023-03-11T18:30:41.636Z,96560.59
2023-03-11T18:33:11.792Z,96565.97
2023-03-11T18:35:38.233Z,96568.03
2023-03-11T18:38:04.709Z,96556.06
2023-03-11T18:40:31.142Z,96556.06
2023-03-11T18:42:57.622Z,96563.06
2023-03-11T18:45:24.009Z,96561.84
2023-03-11T18:47:50.462Z,96555.25
2023-03-11T18:50:17.053Z,96550.69
2023-03-11T18:52:43.509Z,96555.84
2023-03-11T18:55:09.974Z,96552.16
2023-03-11T18:57:36.445Z,96547.59
2023-03-11T19:00:02.857Z,96543.69
2023-03-11T19:02:29.620Z,96545.75
2023-03-11T19:04:56.094Z,96556.06
2023-03-11T19:07:23.579Z,96559.34
2023-03-11T19:09:50.062Z,96568.44
2023-03-11T19:12:16.480Z,96555.63
2023-03-11T19:14:43.036Z,96549.69
2023-03-11T19:17:10.867Z,96551.13
2023-03-11T19:19:37.389Z,96563.31
2023-03-11T19:22:03.859Z,96571.13
2023-03-11T19:24:30.370Z,96577.28
2023-03-11T19:26:56.889Z,96592.94
2023-03-11T19:29:23.408Z,96589.03
2023-03-11T19:31:49.874Z,96593.56
2023-03-11T19:34:16.369Z,96597.69
2023-03-11T19:36:42.850Z,96592.31
2023-03-11T19:39:09.330Z,96609.66
2023-03-11T19:41:35.770Z,96609.84
2023-03-11T19:44:02.309Z,96608.63
2023-03-11T19:46:28.835Z,96622.41
2023-03-11T19:48:55.379Z,96624.03
2023-03-11T19:51:21.890Z,96625.91
2023-03-11T19:53:48.450Z,96627.97
2023-03-11T19:56:14.869Z,96626.31
2023-03-11T19:58:42.477Z,96619.53
2023-03-11T20:01:09.049Z,96611.09
2023-03-11T20:03:35.572Z,96618.50
2023-03-11T20:06:02.232Z,96604.06
2023-03-11T20:08:28.886Z,96596.84
2023-03-11T20:10:55.515Z,96583.66
2023-03-11T20:13:22.047Z,96592.31
2023-03-11T20:15:48.583Z,96589.03
2023-03-11T20:18:15.164Z,96602.63
2023-03-11T20:20:41.719Z,96624.25
2023-03-11T20:23:08.160Z,96641.56
2023-03-11T20:25:34.725Z,96643.63
2023-03-11T20:28:01.154Z,96645.91
2023-03-11T20:30:27.495Z,96647.75
2023-03-11T20:32:53.982Z,96639.91
2023-03-11T20:35:20.604Z,96644.69
2023-03-11T20:37:47.122Z,96656.44
2023-03-11T20:40:17.172Z,96659.31
2023-03-11T20:42:43.753Z,96648.59
2023-03-11T20:45:10.388Z,96663.22
2023-03-11T20:47:37.680Z,96658.25
2023-03-11T20:50:04.339Z,96656.41
2023-03-11T20:52:30.923Z,96654.34
2023-03-11T20:54:57.521Z,96655.78
2023-03-11T20:57:24.122Z,96663.59
2023-03-11T20:59:50.605Z,96670.41
2023-03-11T21:02:17.245Z,96664.44
2023-03-11T21:04:44.053Z,96673.91
2023-03-11T21:07:10.602Z,96677.19
2023-03-11T21:09:37.560Z,96667.28
2023-03-11T21:12:04.405Z,96667.72
2023-03-11T21:14:30.862Z,96681.31
2023-03-11T21:16:58.792Z,96684.63
2023-03-11T21:19:25.440Z,96679.25
2023-03-11T21:21:52.234Z,96673.09
2023-03-11T21:24:19.224Z,96686.47
2023-03-11T21:26:45.763Z,96689.75
2023-03-11T21:29:12.434Z,96710.59
2023-03-11T21:31:39.062Z,96705.19
2023-03-11T21:34:05.576Z,96711.41
2023-03-11T21:36:32.195Z,96713.25
2023-03-11T21:39:07.871Z,96716.78
2023-03-11T21:41:39.075Z,96723.75
2023-03-11T21:44:05.518Z,96720.69
2023-03-11T21:46:32.095Z,96724.81
2023-03-11T21:48:58.761Z,96720.06
2023-03-11T21:51:26.084Z,96719.03
2023-03-11T21:53:56.195Z,96723.38
2023-03-11T21:56:22.836Z,96717.59
2023-03-11T21:58:49.332Z,96708.31
2023-03-11T22:01:15.959Z,96711.84
2023-03-11T22:03:42.609Z,96737.81
2023-03-11T22:06:09.282Z,96743.97
2023-03-11T22:08:35.854Z,96753.69
2023-03-11T22:11:02.383Z,96745.41
2023-03-11T22:13:29.033Z,96745.63
2023-03-11T22:15:55.501Z,96738.63
2023-03-11T22:18:21.960Z,96748.13
2023-03-11T22:20:49.608Z,96752.84
2023-03-11T22:23:16.042Z,96752.03
2023-03-11T22:25:42.413Z,96764.19
2023-03-11T22:28:08.995Z,96754.28
2023-03-11T22:30:35.413Z,96760.66
2023-03-11T22:33:02.296Z,96764.59
2023-03-11T22:35:28.697Z,96769.94
2023-03-11T22:37:55.104Z,96770.34
2023-03-11T22:40:21.538Z,96772.63
2023-03-11T22:42:48.044Z,96770.59
2023-03-11T22:45:14.429Z,96767.50
2023-03-11T22:47:40.845Z,96765.44
2023-03-11T22:50:07.242Z,96767.69
2023-03-11T22:52:33.633Z,96764.81
2023-03-11T22:55:00.336Z,96772.66
2023-03-11T22:57:27.154Z,96784.00
2023-03-11T22:59:53.602Z,96791.81
2023-03-11T23:02:20.043Z,96796.94
2023-03-11T23:04:46.493Z,96796.31
2023-03-11T23:07:12.890Z,96797.97
2023-03-11T23:09:39.269Z,96807.66
2023-03-11T23:12:05.646Z,96806.03
2023-03-11T23:14:44.144Z,96791.81
2023-03-11T23:17:18.457Z,96795.09
2023-03-11T23:19:44.791Z,96794.69
2023-03-11T23:22:11.185Z,96804.81
2023-03-11T23:24:37.568Z,96789.94
2023-03-11T23:27:04.007Z,96786.88
2023-03-11T23:29:30.450Z,96774.72
2023-03-11T23:31:56.894Z,96766.69
2023-03-11T23:34:23.295Z,96771.59
2023-03-11T23:36:49.758Z,96788.88
2023-03-11T23:39:16.113Z,96798.78
2023-03-11T23:41:42.465Z,96812.41
2023-03-11T23:44:08.882Z,96809.53
2023-03-11T23:46:35.341Z,96808.53
2023-03-11T23:49:01.704Z,96805.22
2023-03-11T23:51:28.197Z,96803.16
2023-03-11T23:53:54.544Z,96802.75
2023-03-11T23:56:20.973Z,96804.59
2023-03-11T23:58:47.348Z,96801.09
